Time;durP1;ratioP1;P1;durP2;ratioP2;P2;SDS_P1;SDS_P2;PMS_P1;PMS_P2;Temp;Humidity;BMP_temperature;BMP_pressure;BME280_temperature;BME280_humidity;BME280_pressure;Samples;Min_cycle;Max_cycle;Signal;HPM_P1;HPM_P2
2022/01/28 00:00:32;;;;;;;10.50;2.50;;;;;;;4.70;84.75;100351.56;4827882;29;20072;-80
2022/01/28 00:05:27;;;;;;;9.07;2.87;;;;;;;4.75;82.98;100362.91;4839791;29;20049;-81
2022/01/28 00:07:55;;;;;;;12.30;2.63;;;;;;;4.81;83.05;100364.66;4830093;29;20279;-82
2022/01/28 00:10:23;;;;;;;7.33;2.80;;;;;;;4.83;82.71;100351.56;4842321;29;20132;-81
2022/01/28 00:13:13;;;;;;;8.80;2.90;;;;;;;4.86;82.43;100370.75;4856113;29;20045;-81
2022/01/28 00:40:30;;;;;;;8.37;2.57;;;;;;;4.99;80.33;100414.34;4843861;29;20049;-80
2022/01/28 00:42:57;;;;;;;14.47;4.27;;;;;;;4.99;78.60;100397.78;4829008;29;20480;-82
2022/01/28 00:45:25;;;;;;;11.93;3.80;;;;;;;5.00;79.33;100416.09;4846525;29;20242;-81
2022/01/28 00:47:52;;;;;;;10.23;3.10;;;;;;;4.99;78.06;100432.69;4843691;29;20053;-81
2022/01/28 00:50:19;;;;;;;9.63;2.90;;;;;;;5.03;78.02;100433.53;4828830;29;20097;-82
2022/01/28 00:52:46;;;;;;;8.00;2.87;;;;;;;5.03;78.44;100437.03;4820406;29;20052;-80
2022/01/28 00:55:13;;;;;;;11.80;3.57;;;;;;;5.05;77.48;100445.78;4824187;29;20102;-81
2022/01/28 00:57:40;;;;;;;7.10;2.20;;;;;;;5.05;76.84;100424.81;4824861;29;20101;-80
2022/01/28 01:00:09;;;;;;;10.37;2.53;;;;;;;5.07;77.97;100436.16;4841540;29;20121;-80
2022/01/28 01:02:36;;;;;;;7.87;2.40;;;;;;;5.02;77.31;100448.38;4843879;29;20729;-81
2022/01/28 01:05:04;;;;;;;11.40;2.63;;;;;;;5.06;77.64;100451.88;4859795;29;20051;-81
2022/01/28 01:07:31;;;;;;;8.97;2.73;;;;;;;5.06;77.18;100468.47;4858257;29;20061;-81
2022/01/28 01:09:57;;;;;;;6.17;2.30;;;;;;;4.98;75.77;100453.63;4844328;29;20085;-81
2022/01/28 01:12:26;;;;;;;12.07;2.90;;;;;;;4.99;75.38;100461.47;4853012;29;20054;-79
2022/01/28 01:14:53;;;;;;;8.30;2.87;;;;;;;4.96;75.53;100466.72;4843076;29;20052;-80
2022/01/28 01:19:50;;;;;;;12.77;2.57;;;;;;;5.01;74.60;100480.66;4858765;29;20049;-81
2022/01/28 01:22:20;;;;;;;8.80;2.90;;;;;;;4.98;75.66;100469.34;4832972;29;20464;-80
2022/01/28 01:24:50;;;;;;;9.50;2.60;;;;;;;4.91;75.78;100491.16;4856666;29;20044;-80
2022/01/28 01:27:18;;;;;;;9.90;2.50;;;;;;;4.95;75.57;100499.00;4843822;29;20052;-80
2022/01/28 01:29:46;;;;;;;9.97;2.30;;;;;;;4.91;75.46;100496.38;4844683;29;20084;-81
2022/01/28 01:32:17;;;;;;;6.73;3.00;;;;;;;4.86;75.66;100496.38;4843719;29;20057;-81
2022/01/28 01:34:46;;;;;;;10.20;2.80;;;;;;;4.92;75.31;100488.53;4843576;29;20045;-81
2022/01/28 01:37:13;;;;;;;7.47;2.50;;;;;;;4.92;75.47;100506.84;4842210;29;20072;-81
2022/01/28 01:39:41;;;;;;;7.07;2.87;;;;;;;4.92;76.08;100516.47;4844612;29;20045;-80
2022/01/28 01:52:57;;;;;;;8.33;3.37;;;;;;;4.84;74.59;100540.00;4830042;29;20045;-80
2022/01/28 01:55:24;;;;;;;11.60;3.50;;;;;;;4.87;74.68;100536.50;4830117;29;20053;-79
2022/01/28 01:57:52;;;;;;;11.27;2.37;;;;;;;4.81;74.62;100537.41;4844375;29;20732;-79
2022/01/28 02:00:18;;;;;;;6.70;2.40;;;;;;;4.83;75.19;100551.34;4822283;29;20049;-79
2022/01/28 02:02:46;;;;;;;13.17;3.13;;;;;;;4.82;74.40;100557.47;4844153;29;20063;-80
2022/01/28 02:05:18;;;;;;;11.93;3.00;;;;;;;4.81;74.26;100566.19;4834396;29;20053;-80
2022/01/28 02:07:45;;;;;;;8.37;2.47;;;;;;;4.84;76.06;100560.94;4832494;29;20105;-79
2022/01/28 02:10:13;;;;;;;12.70;3.80;;;;;;;4.84;76.79;100581.00;4831437;29;20073;-80
2022/01/28 02:12:44;;;;;;;18.20;3.27;;;;;;;4.80;76.08;100578.41;4861940;29;20045;-80
2022/01/28 02:15:10;;;;;;;7.90;2.40;;;;;;;4.80;77.01;100580.16;4926316;23;20467;-85
2022/01/28 02:17:37;;;;;;;8.37;2.23;;;;;;;4.70;75.46;100580.97;4824523;29;20046;-84
2022/01/28 02:20:07;;;;;;;9.43;2.60;;;;;;;4.75;76.59;100582.75;4832409;29;20049;-85
2022/01/28 02:22:35;;;;;;;8.33;2.10;;;;;;;4.72;78.33;100608.06;4818376;29;20054;-84
2022/01/28 02:25:01;;;;;;;8.23;2.43;;;;;;;4.71;78.79;100595.84;4825367;29;20050;-85
2022/01/28 02:27:28;;;;;;;8.03;3.13;;;;;;;4.65;76.39;100582.72;4825761;29;20523;-84
2022/01/28 02:29:56;;;;;;;12.33;2.60;;;;;;;4.68;77.86;100591.44;4832130;29;20052;-87
2022/01/28 02:32:22;;;;;;;8.60;2.30;;;;;;;4.62;78.47;100599.28;4807640;29;20580;-85
2022/01/28 02:34:49;;;;;;;9.97;3.40;;;;;;;4.61;77.41;100594.91;4825012;29;20114;-84
2022/01/28 02:37:16;;;;;;;10.20;3.23;;;;;;;4.72;77.20;100614.16;4835523;29;20568;-84
2022/01/28 02:39:42;;;;;;;9.77;3.33;;;;;;;4.68;78.35;100598.44;4817772;29;20082;-85
2022/01/28 02:42:19;;;;;;;12.57;2.80;;;;;;;4.66;76.30;100597.56;4836227;29;20103;-84
2022/01/28 02:44:52;;;;;;;10.27;2.70;;;;;;;4.71;76.93;100616.78;4845905;29;20049;-83
2022/01/28 02:47:30;;;;;;;7.87;2.70;;;;;;;4.72;78.19;100610.66;4832734;29;20050;-87
2022/01/28 02:49:57;;;;;;;12.53;3.83;;;;;;;4.63;77.37;100616.75;4826667;29;20464;-83
2022/01/28 02:52:34;;;;;;;10.77;2.97;;;;;;;4.59;77.83;100627.19;4798046;29;20111;-85
2022/01/28 02:55:03;;;;;;;11.00;3.67;;;;;;;4.51;78.54;100630.66;4827966;29;20699;-84
2022/01/28 02:57:32;;;;;;;9.33;3.50;;;;;;;4.62;79.12;100637.66;4835950;29;20049;-85
2022/01/28 02:59:58;;;;;;;7.67;2.67;;;;;;;4.66;79.21;100634.19;4856587;29;20053;-85
2022/01/28 03:02:25;;;;;;;17.00;5.07;;;;;;;4.61;78.87;100647.25;4822601;29;20351;-83
2022/01/28 03:05:14;;;;;;;11.37;4.63;;;;;;;4.63;79.50;100656.00;4840035;29;20057;-83
2022/01/28 03:07:41;;;;;;;10.63;3.70;;;;;;;4.70;78.33;100651.63;4841476;29;20050;-85
2022/01/28 03:12:48;;;;;;;15.37;3.50;;;;;;;4.60;78.42;100665.56;4823385;29;20046;-85
2022/01/28 03:15:20;;;;;;;13.37;4.30;;;;;;;4.63;77.92;100668.22;4792859;29;1029945;-84
2022/01/28 03:18:06;;;;;;;11.10;2.90;;;;;;;4.64;78.67;100667.34;4826023;29;20110;-83
2022/01/28 03:20:56;;;;;;;10.63;3.60;;;;;;;4.65;79.07;100663.84;4840657;29;20271;-84
2022/01/28 03:23:22;;;;;;;15.13;5.03;;;;;;;4.59;78.99;100666.44;4844304;29;20049;-84
2022/01/28 03:25:50;;;;;;;13.00;3.40;;;;;;;4.58;78.39;100678.66;4830133;29;20050;-86
2022/01/28 03:28:19;;;;;;;12.73;4.43;;;;;;;4.66;78.69;100686.53;4809044;29;20046;-85
2022/01/28 03:30:46;;;;;;;13.87;3.83;;;;;;;4.65;78.42;100690.03;4825784;29;20050;-85
2022/01/28 03:33:13;;;;;;;9.73;3.43;;;;;;;4.70;77.84;100690.88;4808486;29;20420;-84
2022/01/28 03:35:39;;;;;;;14.83;3.53;;;;;;;4.66;77.69;100686.53;4819798;29;20049;-84
2022/01/28 03:38:11;;;;;;;12.63;3.83;;;;;;;4.65;78.54;100687.41;4823856;29;20053;-86
2022/01/28 03:40:37;;;;;;;13.47;4.37;;;;;;;4.65;77.83;100684.78;4839740;29;20060;-86
2022/01/28 03:43:05;;;;;;;9.97;3.07;;;;;;;4.67;78.65;100703.97;4836072;29;20054;-85
2022/01/28 03:45:32;;;;;;;15.67;4.23;;;;;;;4.69;78.18;100707.47;4829795;29;20050;-86
2022/01/28 03:47:59;;;;;;;15.10;3.83;;;;;;;4.65;78.69;100731.88;4803874;29;20538;-85
2022/01/28 03:50:26;;;;;;;13.70;4.17;;;;;;;4.64;78.95;100736.25;4816324;29;20057;-82
2022/01/28 03:52:53;;;;;;;13.00;4.17;;;;;;;4.66;78.09;100726.66;4824909;29;20049;-85
2022/01/28 03:55:19;;;;;;;8.80;3.50;;;;;;;4.69;79.04;100733.63;4809983;29;20122;-83
2022/01/28 03:57:46;;;;;;;14.17;3.50;;;;;;;4.66;79.88;100737.13;4837984;29;20106;-84
2022/01/28 04:00:13;;;;;;;12.80;3.50;;;;;;;4.65;78.52;100739.72;4821676;29;20050;-85
2022/01/28 04:02:43;;;;;;;15.70;3.80;;;;;;;4.61;78.54;100744.06;4836380;29;20057;-84
2022/01/28 04:13:48;;;;;;;9.90;4.00;;;;;;;4.57;79.01;100765.00;4834124;29;20412;-86
2022/01/28 04:17:19;;;;;;;9.70;2.87;;;;;;;4.59;78.86;100781.56;4808956;29;20673;-83
2022/01/28 04:19:04;;;;;;;19.00;4.13;;;;;;;4.58;79.42;100767.59;4839270;29;20057;-85
2022/01/28 04:21:31;;;;;;;10.80;4.47;;;;;;;4.60;78.25;100781.56;4823554;29;20121;-84
2022/01/28 04:23:58;;;;;;;9.93;3.43;;;;;;;4.58;78.61;100790.28;4854848;29;20054;-85
2022/01/28 04:26:24;;;;;;;9.83;3.90;;;;;;;4.61;79.30;100790.28;4806202;29;20054;-86
2022/01/28 04:28:51;;;;;;;15.70;3.90;;;;;;;4.63;80.14;100818.25;4809566;29;20049;-85
2022/01/28 04:31:18;;;;;;;12.43;3.43;;;;;;;4.61;79.57;100825.19;4808967;29;20361;-84
2022/01/28 04:33:44;;;;;;;11.30;3.47;;;;;;;4.52;79.31;100815.53;4822251;29;20207;-84
2022/01/28 04:36:14;;;;;;;15.20;3.60;;;;;;;4.62;79.26;100810.34;4805934;29;20313;-84
2022/01/28 04:38:50;;;;;;;8.67;3.10;;;;;;;4.60;78.29;100823.44;4796892;29;20117;-83
2022/01/28 04:41:28;;;;;;;11.00;3.43;;;;;;;4.62;79.17;100826.06;4810005;29;20148;-84
2022/01/28 04:44:03;;;;;;;11.87;3.13;;;;;;;4.61;78.60;100838.25;4821957;29;20388;-83
2022/01/28 04:46:48;;;;;;;10.37;3.03;;;;;;;4.62;80.20;100836.50;4833660;29;20141;-84
2022/01/28 04:49:32;;;;;;;;;;;;;;;4.60;78.43;100843.50;4861518;29;20141;-84
2022/01/28 04:54:57;;;;;;;11.23;3.97;;;;;;;4.47;79.38;100853.00;4822883;29;20050;-85
2022/01/28 05:00:27;;;;;;;8.13;2.83;;;;;;;4.51;79.59;100866.09;4839331;29;20128;-85
2022/01/28 05:03:11;;;;;;;20.37;5.20;;;;;;;4.55;79.08;100863.53;4825660;29;20058;-84
2022/01/28 05:27:28;;;;;;;13.87;3.03;;;;;;;4.49;78.56;100908.81;4862721;29;20073;-83
2022/01/28 05:29:56;;;;;;;13.50;3.70;;;;;;;4.47;78.50;100918.41;4829257;29;20147;-87
2022/01/28 05:32:23;;;;;;;12.63;4.47;;;;;;;4.47;78.64;100924.53;4823551;29;20418;-85
2022/01/28 05:34:49;;;;;;;11.50;3.37;;;;;;;4.43;77.80;100935.81;4834005;29;20099;-84
2022/01/28 05:37:16;;;;;;;12.47;3.47;;;;;;;4.40;77.45;100932.28;4836585;29;20043;-84
2022/01/28 05:39:43;;;;;;;17.17;4.17;;;;;;;4.40;79.48;100941.03;4824805;29;20397;-83
2022/01/28 05:42:10;;;;;;;14.47;4.43;;;;;;;4.28;77.89;100940.00;4843975;29;20049;-85
2022/01/28 05:44:36;;;;;;;14.53;4.50;;;;;;;4.34;78.33;100954.03;4861901;29;20045;-84
2022/01/28 05:47:03;;;;;;;15.80;4.27;;;;;;;4.34;78.49;100963.63;4856655;29;20134;-86
2022/01/28 05:49:30;;;;;;;15.67;4.37;;;;;;;4.35;78.93;100960.13;4827771;29;20423;-85
2022/01/28 05:51:58;;;;;;;13.53;4.07;;;;;;;4.35;79.11;100979.31;4808508;29;20054;-84
2022/01/28 05:54:25;;;;;;;15.17;3.90;;;;;;;4.31;78.49;100982.78;4794799;29;20046;-84
2022/01/28 05:56:51;;;;;;;10.10;3.13;;;;;;;4.29;78.39;100994.06;4808363;29;20125;-83
2022/01/28 05:59:19;;;;;;;13.63;4.03;;;;;;;4.27;79.78;100994.06;4798526;29;20731;-84
2022/01/28 06:01:46;;;;;;;14.50;3.83;;;;;;;4.25;78.72;100998.41;4825697;29;20132;-83
2022/01/28 06:04:15;;;;;;;18.43;5.23;;;;;;;4.15;78.66;101000.06;4843051;29;20057;-85
2022/01/28 06:06:42;;;;;;;10.93;3.60;;;;;;;4.14;79.90;101010.50;4826117;29;20050;-84
2022/01/28 06:09:09;;;;;;;14.47;4.13;;;;;;;4.11;79.60;101013.06;4827821;29;20050;-85
2022/01/28 06:11:37;;;;;;;16.73;3.33;;;;;;;4.10;79.50;101027.00;4810971;29;20110;-84
2022/01/28 06:14:04;;;;;;;14.17;4.63;;;;;;;4.11;79.76;101024.38;4827492;29;20106;-84
2022/01/28 06:16:30;;;;;;;13.57;3.97;;;;;;;4.08;79.97;101045.28;4841410;29;20065;-84
2022/01/28 06:18:57;;;;;;;11.73;3.53;;;;;;;4.12;79.81;101036.63;4812560;29;20046;-84
2022/01/28 06:21:24;;;;;;;18.10;3.73;;;;;;;4.09;79.66;101049.66;4811287;29;20054;-85
2022/01/28 06:23:52;;;;;;;14.37;3.60;;;;;;;4.09;79.99;101060.09;4829214;29;20046;-85
2022/01/28 06:26:18;;;;;;;15.10;4.60;;;;;;;3.98;79.42;101055.63;4841255;29;20514;-83
2022/01/28 06:28:45;;;;;;;11.47;3.30;;;;;;;3.99;79.08;101062.59;4812510;29;20053;-87
2022/01/28 06:31:12;;;;;;;14.63;3.70;;;;;;;3.94;80.08;101065.13;4810507;29;20104;-84
2022/01/28 06:33:39;;;;;;;15.33;4.97;;;;;;;3.92;80.37;101072.09;4812183;29;20061;-86
2022/01/28 06:36:06;;;;;;;15.43;5.10;;;;;;;3.87;79.87;101073.78;4811209;29;20132;-88
2022/01/28 06:38:36;;;;;;;19.00;4.47;;;;;;;3.88;80.57;101081.63;4827248;29;20054;-85
2022/01/28 06:41:02;;;;;;;8.40;2.80;;;;;;;3.84;80.39;101087.66;4810300;29;20052;-84
2022/01/28 06:43:29;;;;;;;11.00;3.00;;;;;;;3.79;80.52;101099.81;4808581;29;20363;-83
2022/01/28 06:45:56;;;;;;;14.97;3.60;;;;;;;3.76;81.56;101109.31;4821014;29;20049;-86
2022/01/28 06:48:22;;;;;;;15.10;3.90;;;;;;;3.74;80.26;101111.91;4834461;29;20038;-84
2022/01/28 06:50:49;;;;;;;7.17;2.33;;;;;;;3.66;80.80;101116.16;4823615;29;20053;-84
2022/01/28 06:53:16;;;;;;;14.67;5.20;;;;;;;3.62;80.23;101115.25;4822353;29;20042;-83
2022/01/28 06:55:43;;;;;;;11.07;3.77;;;;;;;3.62;80.87;101124.81;4832790;29;20056;-85
2022/01/28 06:58:09;;;;;;;13.57;3.33;;;;;;;3.57;80.99;101132.56;4858844;29;20046;-85
2022/01/28 07:00:37;;;;;;;13.93;3.93;;;;;;;3.59;81.31;101137.81;4859505;29;20076;-83
2022/01/28 07:03:05;;;;;;;17.20;4.50;;;;;;;3.55;81.70;101144.75;4833932;29;20049;-84
2022/01/28 07:05:32;;;;;;;14.37;4.10;;;;;;;3.56;80.95;101156.06;4841165;29;20053;-84
2022/01/28 07:07:59;;;;;;;12.87;3.60;;;;;;;3.48;81.75;101158.56;4822852;29;20050;-84
2022/01/28 07:10:26;;;;;;;12.47;3.60;;;;;;;3.42;82.21;101168.00;4826169;29;20050;-82
2022/01/28 07:12:56;;;;;;;10.47;3.30;;;;;;;3.50;81.93;101177.72;4821354;29;20047;-83
2022/01/28 07:15:24;;;;;;;14.60;4.50;;;;;;;3.51;82.10;101178.59;4822746;29;20483;-84
2022/01/28 07:17:52;;;;;;;12.23;2.93;;;;;;;3.52;81.69;101186.47;4839207;29;20102;-81
2022/01/28 07:20:23;;;;;;;11.20;3.27;;;;;;;3.45;81.21;101188.94;4829118;29;20098;-83
2022/01/28 07:22:50;;;;;;;10.90;3.23;;;;;;;3.37;81.43;101200.16;4857486;29;20073;-82
2022/01/28 07:25:17;;;;;;;19.57;3.53;;;;;;;3.48;80.78;101202.09;4845813;29;20053;-82
2022/01/28 07:27:44;;;;;;;18.67;3.37;;;;;;;3.50;82.15;101221.25;4839697;29;20046;-82
2022/01/28 07:30:13;;;;;;;15.43;5.63;;;;;;;3.47;82.04;101216.88;4840568;29;20046;-82
2022/01/28 07:32:40;;;;;;;12.37;4.47;;;;;;;3.35;82.05;101225.34;4839189;29;20065;-83
2022/01/28 07:35:11;;;;;;;14.90;4.50;;;;;;;3.40;82.46;101230.69;4825823;29;20099;-83
2022/01/28 07:37:38;;;;;;;15.50;4.90;;;;;;;3.41;82.05;101234.16;4838293;29;20050;-82
2022/01/28 07:40:05;;;;;;;13.40;3.27;;;;;;;3.30;82.02;101249.66;4825046;29;20082;-82
2022/01/28 07:42:33;;;;;;;11.07;3.97;;;;;;;3.42;81.72;101256.81;4839041;29;20054;-84
2022/01/28 07:45:04;;;;;;;14.67;3.30;;;;;;;3.38;81.70;101251.56;4840644;29;20069;-82
2022/01/28 07:47:31;;;;;;;19.87;3.53;;;;;;;3.39;82.03;101262.88;4838641;29;20054;-82
2022/01/28 07:49:58;;;;;;;8.97;3.00;;;;;;;3.30;81.67;101268.81;4840065;29;20087;-83
2022/01/28 07:52:24;;;;;;;12.47;3.70;;;;;;;3.34;81.52;101268.00;4823622;29;20102;-83
2022/01/28 07:54:51;;;;;;;14.30;3.37;;;;;;;3.33;81.96;101262.75;4840070;29;20504;-83
2022/01/28 07:57:18;;;;;;;9.77;3.30;;;;;;;3.36;82.06;101268.94;4823911;29;20102;-82
2022/01/28 07:59:53;;;;;;;8.73;3.10;;;;;;;3.31;82.45;101280.13;4839555;29;20106;-82
2022/01/28 08:02:36;;;;;;;14.20;5.13;;;;;;;3.31;82.49;101278.41;4840832;29;20046;-82
2022/01/28 08:05:03;;;;;;;12.23;3.70;;;;;;;3.26;82.34;101281.75;4839814;29;20053;-82
2022/01/28 08:07:30;;;;;;;16.27;4.73;;;;;;;3.33;82.41;101286.25;4814295;29;20050;-82
2022/01/28 08:09:56;;;;;;;10.00;3.00;;;;;;;3.31;83.41;101294.06;4809733;29;20109;-82
2022/01/28 08:12:24;;;;;;;9.40;3.27;;;;;;;3.38;82.34;101301.19;4829624;29;20061;-82
2022/01/28 08:14:51;;;;;;;12.10;3.40;;;;;;;3.30;82.85;101299.28;4909811;23;20460;-80
2022/01/28 08:17:20;;;;;;;11.33;3.60;;;;;;;3.33;82.56;101314.97;4842508;29;20037;-80
2022/01/28 08:19:47;;;;;;;15.43;5.53;;;;;;;3.39;81.82;101310.75;4830365;29;20168;-80
2022/01/28 08:22:13;;;;;;;10.77;3.77;;;;;;;3.44;81.50;101323.03;4841908;29;20053;-80
2022/01/28 08:24:40;;;;;;;11.03;3.77;;;;;;;3.45;81.17;101328.31;4842891;29;20049;-80
2022/01/28 08:27:07;;;;;;;12.30;3.43;;;;;;;3.47;82.77;101338.78;4856512;29;20048;-81
2022/01/28 08:29:34;;;;;;;16.60;4.00;;;;;;;3.50;82.46;101346.66;4845524;29;20045;-80
2022/01/28 08:32:01;;;;;;;13.47;3.77;;;;;;;3.50;82.40;101349.28;4840859;29;20050;-81
2022/01/28 08:34:27;;;;;;;15.60;4.00;;;;;;;3.49;82.54;101347.50;4843294;29;20053;-81
2022/01/28 08:36:54;;;;;;;11.40;4.20;;;;;;;3.59;82.07;101341.59;4840676;29;20037;-80
2022/01/28 08:39:22;;;;;;;9.93;3.20;;;;;;;3.66;80.36;101360.03;4827307;29;20053;-80
2022/01/28 08:41:49;;;;;;;12.87;4.77;;;;;;;3.61;80.46;101364.28;4855556;29;20050;-81
2022/01/28 08:44:17;;;;;;;13.33;3.40;;;;;;;3.65;82.10;101368.72;4841902;29;20105;-81
2022/01/28 08:46:44;;;;;;;9.40;2.63;;;;;;;3.69;79.79;101367.03;4845835;29;20068;-80
2022/01/28 08:49:11;;;;;;;11.00;3.53;;;;;;;3.72;80.46;101372.34;4865394;29;20061;-81
2022/01/28 08:51:38;;;;;;;10.53;3.30;;;;;;;3.72;79.95;101388.03;4840673;29;20049;-81
2022/01/28 08:54:05;;;;;;;17.13;4.70;;;;;;;3.75;80.57;101390.69;4827915;29;20088;-80
2022/01/28 08:56:31;;;;;;;11.07;3.60;;;;;;;3.77;80.35;101375.91;4825393;29;20457;-80
2022/01/28 08:58:58;;;;;;;11.77;3.27;;;;;;;3.89;80.45;101389.22;4825766;29;20045;-80
2022/01/28 09:01:25;;;;;;;12.10;3.43;;;;;;;3.89;79.92;101406.66;4854233;29;20048;-80
2022/01/28 09:03:52;;;;;;;10.60;3.23;;;;;;;3.94;80.00;101410.19;4827213;29;20110;-80
2022/01/28 09:06:19;;;;;;;17.83;5.17;;;;;;;3.97;79.86;101404.16;4840131;29;20057;-80
2022/01/28 09:08:47;;;;;;;15.63;4.93;;;;;;;3.95;80.40;101415.47;4841308;29;20054;-81
2022/01/28 09:13:50;;;;;;;9.63;3.30;;;;;;;4.15;79.62;101414.97;4841884;29;20049;-80
2022/01/28 09:16:17;;;;;;;20.70;3.00;;;;;;;4.23;78.47;101422.09;4840425;29;20988;-80
2022/01/28 09:18:44;;;;;;;8.90;3.00;;;;;;;4.19;79.10;101433.31;4826909;29;20045;-80
2022/01/28 09:21:11;;;;;;;9.03;3.40;;;;;;;4.29;78.71;101446.56;4809153;29;20045;-80
2022/01/28 09:23:38;;;;;;;10.27;3.00;;;;;;;4.13;77.78;101442.81;4842487;29;20057;-80
2022/01/28 09:26:05;;;;;;;10.27;2.70;;;;;;;4.27;77.66;101440.44;4824763;29;20127;-81
2022/01/28 09:28:32;;;;;;;10.13;3.23;;;;;;;4.40;77.80;101448.53;4841238;29;20041;-80
2022/01/28 09:30:59;;;;;;;10.87;3.10;;;;;;;4.44;78.09;101471.25;4824352;29;20049;-81
2022/01/28 09:33:26;;;;;;;9.10;2.67;;;;;;;4.48;76.27;101462.63;4857748;29;20050;-82
2022/01/28 09:35:54;;;;;;;13.03;2.83;;;;;;;4.52;77.46;101460.94;4841422;29;20053;-81
2022/01/28 09:38:21;;;;;;;12.03;2.97;;;;;;;4.57;78.12;101464.53;4840792;29;20061;-80
2022/01/28 09:40:50;;;;;;;13.20;3.53;;;;;;;4.64;77.98;101476.84;4826009;29;20050;-79
2022/01/28 09:43:18;;;;;;;8.67;2.87;;;;;;;4.68;77.44;101481.28;4825302;29;20064;-80
2022/01/28 09:45:48;;;;;;;11.17;3.93;;;;;;;4.68;76.87;101481.28;4852909;29;20049;-80
2022/01/28 09:48:18;;;;;;;11.70;2.93;;;;;;;4.68;76.90;101493.47;4856374;29;20076;-79
2022/01/28 09:50:46;;;;;;;12.17;2.90;;;;;;;4.74;75.82;101499.72;4823046;29;20424;-79
2022/01/28 09:53:14;;;;;;;10.90;2.80;;;;;;;4.86;74.73;101499.00;4836516;29;20137;-80
2022/01/28 09:55:47;;;;;;;6.47;2.70;;;;;;;4.93;74.79;101500.00;4810545;29;20042;-79
2022/01/28 09:58:15;;;;;;;10.63;4.77;;;;;;;4.96;76.32;101518.38;4840780;29;20503;-81
2022/01/28 10:00:42;;;;;;;12.23;3.87;;;;;;;5.16;75.16;101510.84;4825986;29;20105;-80
2022/01/28 10:03:12;;;;;;;14.27;3.47;;;;;;;5.18;73.87;101524.84;4841007;29;20093;-82
2022/01/28 10:05:42;;;;;;;11.60;3.60;;;;;;;5.25;73.46;101545.03;4819337;29;20056;-80
2022/01/28 10:08:14;;;;;;;8.53;3.53;;;;;;;5.26;74.86;101537.19;4839984;29;20048;-81
2022/01/28 10:10:59;;;;;;;10.93;3.20;;;;;;;4.92;74.28;101553.22;4829352;29;20511;-81
2022/01/28 10:13:37;;;;;;;10.60;3.30;;;;;;;5.08;75.30;101540.41;4844717;29;20077;-81
2022/01/28 10:16:32;;;;;;;12.83;3.57;;;;;;;5.05;74.09;101558.72;4857403;29;20075;-79
2022/01/28 10:19:03;;;;;;;11.30;2.65;;;;;;;5.21;74.58;101565.06;4872363;29;20057;-80
2022/01/28 10:21:35;;;;;;;11.13;3.20;;;;;;;5.22;73.49;101572.06;4843099;29;20053;-81
2022/01/28 10:24:15;;;;;;;13.77;3.03;;;;;;;5.09;73.28;101570.97;4839917;29;20488;-81
2022/01/28 10:26:42;;;;;;;12.73;3.40;;;;;;;5.30;75.35;101572.19;4839795;29;20397;-80
2022/01/28 10:29:31;;;;;;;7.93;2.80;;;;;;;5.30;73.50;101565.22;4832692;29;20049;-80
2022/01/28 10:32:00;;;;;;;9.00;2.50;;;;;;;5.40;73.12;101574.09;4840472;29;20277;-81
2022/01/28 10:34:31;;;;;;;16.50;3.27;;;;;;;5.46;73.57;101574.16;4811507;29;20145;-81
2022/01/28 10:37:23;;;;;;;11.53;4.20;;;;;;;5.45;72.36;101582.91;4809488;29;20058;-81
2022/01/28 10:40:07;;;;;;;10.63;2.93;;;;;;;5.36;72.93;101585.38;4821202;29;20076;-81
2022/01/28 10:42:37;;;;;;;11.27;3.70;;;;;;;5.37;72.97;101576.66;4809338;29;20446;-81
2022/01/28 10:45:11;;;;;;;10.67;3.73;;;;;;;5.49;75.71;101587.34;4831857;29;20132;-82
2022/01/28 10:47:58;;;;;;;9.20;3.47;;;;;;;5.62;73.98;101597.13;4809941;29;20094;-82
2022/01/28 10:50:31;;;;;;;8.40;2.80;;;;;;;5.60;72.77;101604.09;4813355;29;20492;-80
2022/01/28 10:53:09;;;;;;;8.60;2.50;;;;;;;5.65;72.02;101601.56;4845040;29;20110;-80
2022/01/28 10:55:44;;;;;;;5.93;2.47;;;;;;;5.77;72.87;101601.72;4826815;29;20614;-80
2022/01/28 10:58:13;;;;;;;10.60;2.87;;;;;;;5.63;72.67;101601.53;4840990;29;20038;-81
2022/01/28 11:00:43;;;;;;;7.50;2.87;;;;;;;5.72;72.20;101605.13;4820011;29;20056;-79
2022/01/28 11:03:12;;;;;;;7.17;2.43;;;;;;;5.74;71.29;101603.44;4837445;29;20088;-79
2022/01/28 11:05:39;;;;;;;7.60;2.70;;;;;;;5.72;71.92;101613.00;4812431;29;20132;-82
2022/01/28 11:08:08;;;;;;;8.87;2.50;;;;;;;5.52;71.43;101620.56;4824866;29;20488;-80
2022/01/28 11:10:36;;;;;;;9.00;2.43;;;;;;;5.64;72.63;101607.66;4819961;29;20136;-80
2022/01/28 11:13:02;;;;;;;9.90;2.77;;;;;;;5.69;72.06;101619.09;4839129;29;20495;-81
2022/01/28 11:15:30;;;;;;;10.17;3.60;;;;;;;5.72;71.54;101624.38;4841192;29;20527;-81
2022/01/28 11:17:59;;;;;;;9.83;2.83;;;;;;;5.61;70.78;101625.94;4838255;29;20038;-82
2022/01/28 11:20:32;;;;;;;12.73;3.30;;;;;;;5.74;72.40;101616.53;4826107;29;20098;-81
2022/01/28 11:23:18;;;;;;;10.87;2.20;;;;;;;5.67;72.97;101633.91;4841437;29;20042;-80
2022/01/28 11:26:01;;;;;;;9.00;2.97;;;;;;;5.76;70.70;101631.44;4830493;29;20048;-81
2022/01/28 11:29:02;;;;;;;7.13;2.50;;;;;;;5.78;71.51;101637.56;4835992;29;20063;-81
2022/01/28 11:31:46;;;;;;;12.03;2.67;;;;;;;5.79;73.41;101648.94;4821414;29;20059;-82
2022/01/28 11:34:33;;;;;;;9.02;2.25;;;;;;;5.67;70.79;101654.00;4848693;29;20045;-81
2022/01/28 11:37:02;;;;;;;7.53;2.10;;;;;;;5.56;72.40;101654.72;4828875;29;20054;-82
2022/01/28 11:39:31;;;;;;;5.53;1.90;;;;;;;5.50;72.21;101656.38;4860199;29;20060;-81
2022/01/28 11:42:07;;;;;;;9.37;1.90;;;;;;;5.70;73.27;101657.53;4824744;29;20050;-81
2022/01/28 11:44:44;;;;;;;6.50;1.80;;;;;;;5.80;71.62;101664.72;4811232;29;20575;-81
2022/01/28 11:47:20;;;;;;;4.97;1.47;;;;;;;5.87;72.12;101657.81;4840229;29;20053;-80
2022/01/28 11:49:53;;;;;;;6.17;1.57;;;;;;;5.98;70.19;101664.13;4842461;29;20069;-80
2022/01/28 11:52:25;;;;;;;9.50;1.83;;;;;;;5.66;71.30;101658.38;4825389;29;20079;-81
2022/01/28 11:54:52;;;;;;;3.37;1.37;;;;;;;5.95;70.92;101660.56;4841749;29;20045;-79
2022/01/28 11:57:21;;;;;;;4.23;2.30;;;;;;;6.17;70.21;101660.03;4840805;29;20060;-80
2022/01/28 11:59:48;;;;;;;6.00;2.73;;;;;;;6.26;67.99;101661.88;4839279;29;20054;-80
2022/01/28 12:02:17;;;;;;;6.17;1.70;;;;;;;6.28;67.36;101654.91;4821803;29;20046;-80
2022/01/28 12:04:45;;;;;;;4.93;2.20;;;;;;;6.35;66.93;101665.50;4825277;29;20061;-80
2022/01/28 12:07:15;;;;;;;9.37;2.10;;;;;;;6.25;68.81;101663.63;4809876;29;20052;-80
2022/01/28 12:09:52;;;;;;;6.30;1.80;;;;;;;6.27;65.08;101658.41;4811364;29;20065;-80
2022/01/28 12:12:24;;;;;;;4.97;1.30;;;;;;;6.39;65.05;101650.66;4811121;29;20049;-81
2022/01/28 12:15:03;;;;;;;7.80;2.20;;;;;;;6.34;64.94;101663.75;4837166;29;20124;-79
2022/01/28 12:17:30;;;;;;;7.03;2.13;;;;;;;6.15;64.73;101661.75;4826173;29;20058;-80
2022/01/28 12:20:22;;;;;;;4.60;1.63;;;;;;;6.31;65.08;101665.47;4833066;29;20158;-80
2022/01/28 12:23:08;;;;;;;4.40;1.63;;;;;;;6.55;64.75;101659.59;4824449;29;20566;-81
2022/01/28 12:25:40;;;;;;;6.20;2.07;;;;;;;6.60;65.31;101660.56;4839996;29;20420;-81
2022/01/28 12:28:13;;;;;;;5.53;2.00;;;;;;;6.76;64.03;101663.38;4831798;29;20049;-81
2022/01/28 12:30:50;;;;;;;5.97;1.50;;;;;;;6.80;63.27;101671.28;4867602;29;20064;-80
2022/01/28 12:33:24;;;;;;;4.53;1.87;;;;;;;6.72;62.28;101669.44;4839592;29;20041;-80
2022/01/28 12:35:53;;;;;;;5.13;1.25;;;;;;;6.46;61.27;101673.50;4843031;29;20049;-80
2022/01/28 12:38:23;;;;;;;5.57;1.83;;;;;;;6.55;59.91;101672.72;4838864;29;20037;-80
2022/01/28 12:40:53;;;;;;;5.93;1.60;;;;;;;6.67;60.12;101678.16;4851525;29;20057;-79
2022/01/28 12:43:22;;;;;;;8.27;2.20;;;;;;;6.79;60.29;101686.16;4849611;29;20105;-78
2022/01/28 12:46:03;;;;;;;3.37;1.40;;;;;;;6.55;55.56;101684.13;4839200;29;20045;-78
2022/01/28 12:48:30;;;;;;;14.20;10.17;;;;;;;6.67;56.75;101693.91;4852808;29;20052;-79
2022/01/28 12:50:57;;;;;;;7.93;4.20;;;;;;;6.66;57.53;101703.53;4840189;29;20053;-81
2022/01/28 12:53:39;;;;;;;6.47;1.80;;;;;;;6.56;56.39;101704.28;4839607;29;20057;-81
2022/01/28 12:56:07;;;;;;;4.70;2.70;;;;;;;6.75;57.27;101705.38;4856596;29;20049;-81
2022/01/28 12:58:35;;;;;;;2.17;1.20;;;;;;;6.73;55.23;101715.00;4827172;29;20259;-80
2022/01/28 13:01:07;;;;;;;4.23;1.20;;;;;;;6.75;55.53;101723.78;4852640;29;20050;-80
2022/01/28 13:03:39;;;;;;;2.67;1.00;;;;;;;6.71;52.47;101727.22;4839569;29;20405;-79